Latest Weather Observations for Brisbane

IDQ60801

Issued at 1:02 pm EST Thursday 2 April 2015 (issued every 30 minutes, with the page automatically refreshed every 10 minutes)

About weather observations | Map of weather stations | Latest weather observations for QLD | Other Formats
Station Details ID: 040913 Name: BRISBANE Lat: -27.48 Lon: 153.04 Height: 8.13 m
Data from the previous 72 hours. | See also: Recent months at Brisbane
Date/Time
EST
Temp
°C
App
Temp
°C
Dew
Point
Rel
Hum
%
Delta-T
°C
Wind Press
QNH
hPa
Press
MSL
hPa
Rain
since 9 am
mm
Dir
 
Spd
km/h
Gust
km/h
Spd
kts
Gust
kts
02/01:00pm 24.8 26.8 20.7 78 2.7 ENE 11 20 6 11 1016.7 1016.7 0.2
02/12:30pm 26.1 26.8 19.7 68 4.1 E 15 28 8 15 1017.0 1017.0 0.0
02/12:00pm 25.7 28.4 20.3 72 3.5 E 6 13 3 7 1017.5 1017.5 0.0
02/11:30am 25.0 27.3 19.8 73 3.4 E 7 13 4 7 1018.1 1018.1 0.0
02/11:00am 25.5 27.5 19.9 71 3.6 E 9 19 5 10 1018.4 1018.4 0.0
02/10:30am 25.8 26.8 18.7 65 4.5 E 11 19 6 10 1018.5 1018.5 0.0
02/10:00am 25.6 28.0 19.7 70 3.8 SE 6 11 3 6 1018.8 1018.8 0.0
02/09:30am 25.6 28.8 20.6 74 3.3 SSE 4 9 2 5 1019.3 1019.3 0.0
02/09:00am 24.7 27.3 20.0 75 3.0 S 6 9 3 5 1019.5 1019.5 8.8
02/08:30am 23.4 26.4 20.0 81 2.2 S 4 9 2 5 1019.5 1019.5 8.8
02/08:00am 21.2 23.6 18.9 87 1.4 SW 4 7 2 4 1019.4 1019.4 8.8
02/07:30am 20.7 23.4 19.4 92 0.8 SW 4 7 2 4 1019.0 1019.0 8.8
02/07:00am 19.6 21.8 18.4 93 0.7 SW 4 9 2 5 1018.6 1018.6 8.8
02/06:30am 19.5 21.8 18.5 94 0.6 WSW 4 7 2 4 1018.2 1018.2 8.6
02/06:00am 19.4 21.5 18.2 93 0.7 SW 4 9 2 5 1017.9 1017.9 8.6
02/05:30am 19.6 21.5 18.6 94 0.6 SW 6 9 3 5 1017.7 1017.7 8.6
02/05:00am 19.6 21.4 18.4 93 0.7 SW 6 9 3 5 1017.7 1017.7 8.6
02/04:30am 19.6 22.4 18.8 95 0.5 WSW 2 4 1 2 1017.5 1017.5 8.6
02/04:00am 19.6 22.3 18.6 94 0.6 SW 2 7 1 4 1017.4 1017.4 8.6
02/03:30am 19.6 21.9 18.6 94 0.6 WSW 4 7 2 4 1017.6 1017.6 8.6
02/03:00am 19.8 21.8 18.8 94 0.6 SW 6 9 3 5 1018.0 1018.0 8.6
02/02:30am 19.8 22.2 18.8 94 0.6 WSW 4 9 2 5 1018.3 1018.3 8.6
02/02:00am 19.8 22.2 18.8 94 0.6 WSW 4 7 2 4 1018.7 1018.7 8.4
02/01:30am 20.0 22.5 19.0 94 0.6 SW 4 6 2 3 1019.3 1019.3 8.4
02/01:00am 20.1 22.6 19.1 94 0.6 SW 4 9 2 5 1019.4 1019.4 7.4
02/12:30am 20.1 22.6 19.1 94 0.6 WSW 4 6 2 3 1019.6 1019.6 7.4
02/12:00am 20.2 22.8 19.2 94 0.6 WNW 4 6 2 3 1020.0 1020.0 7.4
 
Date/Time
EST
Temp
°C
App
Temp
°C
Dew
Point
Rel
Hum
%
Delta-T
°C
Wind Press
QNH
hPa
Press
MSL
hPa
Rain
since 9 am
mm
Dir
 
Spd
km/h
Gust
km/h
Spd
kts
Gust
kts
01/11:30pm 20.3 22.5 19.1 93 0.8 SW 6 9 3 5 1020.1 1020.1 6.0
01/11:00pm 20.9 24.1 19.7 93 0.8 SW 2 7 1 4 1020.3 1020.3 6.0
01/10:30pm 20.9 24.4 19.6 92 0.8 CALM 0 0 0 0 1020.5 1020.5 5.4
01/10:00pm 21.2 24.2 19.3 89 1.2 NNW 2 6 1 3 1020.5 1020.5 3.2
01/09:30pm 21.0 23.1 18.9 88 1.3 SSE 6 9 3 5 1020.2 1020.2 3.0
01/09:00pm 21.2 23.3 18.9 87 1.4 SSE 6 9 3 5 1020.1 1020.1 3.0
01/08:30pm 21.7 23.5 18.7 83 1.9 SE 7 17 4 9 1020.0 1020.0 3.0
01/08:00pm 22.3 24.0 18.5 79 2.4 SE 7 13 4 7 1019.7 1019.7 2.8
01/07:30pm 22.2 24.4 18.4 79 2.4 SSE 4 9 2 5 1019.7 1019.7 2.8
01/07:00pm 22.3 24.3 17.9 76 2.7 SE 4 7 2 4 1019.4 1019.4 2.8
01/06:30pm 22.6 24.1 17.7 74 3.0 SE 6 11 3 6 1019.1 1019.1 2.8
01/06:00pm 22.8 24.2 17.7 73 3.2 ESE 7 13 4 7 1018.8 1018.8 2.8
01/05:30pm 23.1 24.8 18.0 73 3.2 ESE 6 11 3 6 1018.7 1018.7 2.8
01/05:00pm 23.5 24.8 18.4 73 3.2 ESE 9 17 5 9 1018.6 1018.6 2.8
01/04:30pm 23.9 25.4 18.8 73 3.2 ESE 9 20 5 11 1018.6 1018.6 2.8
01/04:00pm 24.2 25.7 18.8 72 3.4 ESE 9 19 5 10 1018.5 1018.5 2.8
01/03:30pm 24.2 24.8 18.6 71 3.5 ESE 13 26 7 14 1018.6 1018.6 2.8
01/03:00pm 24.2 26.4 19.3 74 3.1 ESE 6 9 3 5 1018.8 1018.8 2.8
01/02:30pm 23.8 25.5 18.4 72 3.4 SE 7 19 4 10 1019.0 1019.0 2.8
01/02:00pm 23.9 25.1 18.3 71 3.5 ESE 9 17 5 9 1019.3 1019.3 2.8
01/01:30pm 23.7 26.0 19.4 77 2.8 SSE 6 9 3 5 1019.7 1019.7 2.8
01/01:00pm 23.2 26.0 19.6 80 2.3 S 4 6 2 3 1020.0 1020.0 2.8
01/12:30pm 22.3 24.5 19.3 83 1.9 SW 6 9 3 5 1020.4 1020.4 2.8
01/12:00pm 21.6 23.5 19.0 85 1.6 SW 7 11 4 6 1020.8 1020.8 2.8
01/11:30am 21.0 23.6 19.3 90 1.1 SW 4 11 2 6 1021.4 1021.4 2.8
01/11:00am 20.2 22.6 18.9 92 0.8 SW 4 6 2 3 1022.0 1022.0 2.8
01/10:30am 19.8 22.1 18.6 93 0.7 SW 4 7 2 4 1022.6 1022.6 2.8
01/10:00am 19.6 21.9 18.6 94 0.6 SW 4 7 2 4 1022.9 1022.9 2.6
01/09:30am 19.5 21.8 18.5 94 0.6 SW 4 6 2 3 1023.0 1023.0 0.2
01/09:00am 19.4 21.2 18.4 94 0.6 WSW 6 9 3 5 1023.2 1023.2 68.2
01/08:30am 19.3 21.0 18.1 93 0.7 SW 6 11 3 6 1023.1 1023.1 68.0
01/08:00am 19.3 21.1 18.3 94 0.6 SSW 6 11 3 6 1022.9 1022.9 67.8
01/07:30am 19.2 21.0 18.4 95 0.5 SSW 6 11 3 6 1022.4 1022.4 67.6
01/07:00am 19.2 20.9 18.4 95 0.5 SW 7 19 4 10 1021.7 1021.7 65.4
01/06:30am 19.2 21.0 18.4 95 0.5 SW 6 9 3 5 1021.4 1021.4 61.2
01/06:00am 19.4 22.1 18.6 95 0.5 S 2 7 1 4 1021.5 1021.5 51.0
01/05:30am 19.6 22.0 18.9 96 0.4 SSE 4 11 2 6 1021.1 1021.1 41.0
01/05:00am 19.4 21.4 18.7 96 0.4 NW 6 13 3 7 1020.8 1020.8 34.0
01/04:30am 19.4 21.7 18.6 95 0.5 S 4 9 2 5 1020.1 1020.1 20.4
01/04:00am 19.3 20.5 18.3 94 0.6 SSE 9 19 5 10 1020.0 1020.0 18.2
01/03:30am 19.4 20.7 18.4 94 0.6 SSE 9 20 5 11 1019.6 1019.6 17.2
01/03:00am 19.5 21.9 18.7 95 0.5 S 4 9 2 5 1019.8 1019.8 16.2
01/02:30am 19.5 21.4 18.5 94 0.6 SSE 6 11 3 6 1020.2 1020.2 12.4
01/02:00am 19.8 21.7 18.6 93 0.7 S 6 9 3 5 1020.3 1020.3 7.0
01/01:30am 20.0 22.4 18.8 93 0.8 S 4 9 2 5 1020.5 1020.5 4.0
01/01:00am 20.0 22.4 18.7 92 0.8 SSW 4 9 2 5 1020.8 1020.8 3.6
01/12:30am 20.0 22.2 18.3 90 1.1 SSE 4 9 2 5 1021.4 1021.4 2.2
01/12:00am 20.7 22.3 17.9 84 1.7 SSE 6 11 3 6 1021.5 1021.5 0.2
 
Date/Time
EST
Temp
°C
App
Temp
°C
Dew
Point
Rel
Hum
%
Delta-T
°C
Wind Press
QNH
hPa
Press
MSL
hPa
Rain
since 9 am
mm
Dir
 
Spd
km/h
Gust
km/h
Spd
kts
Gust
kts
31/11:30pm 20.8 22.4 17.8 83 1.9 S 6 11 3 6 1021.3 1021.3 0.2
31/11:00pm 21.0 22.7 18.0 83 1.9 SSW 6 9 3 5 1021.7 1021.7 0.2
31/10:30pm 20.9 23.4 18.1 84 1.7 SSW 2 9 1 5 1022.1 1022.1 0.2
31/10:00pm 21.0 23.1 18.2 84 1.7 SSW 4 9 2 5 1022.2 1022.2 0.2
31/09:30pm 21.1 22.9 18.3 84 1.7 S 6 11 3 6 1022.2 1022.2 0.2
31/09:00pm 21.1 23.4 18.5 85 1.6 SE 4 6 2 3 1022.3 1022.3 0.2
31/08:30pm 21.1 22.3 18.3 84 1.7 ESE 9 22 5 12 1022.3 1022.3 0.2
31/08:00pm 21.4 22.2 18.2 82 2.0 SSE 11 20 6 11 1022.2 1022.2 0.2
31/07:30pm 21.6 23.4 18.2 81 2.1 SE 6 11 3 6 1021.8 1021.8 0.2
31/07:00pm 21.6 23.0 18.6 83 1.9 SE 9 17 5 9 1021.4 1021.4 0.2
31/06:30pm 22.1 23.8 18.1 78 2.5 SE 6 13 3 7 1021.3 1021.3 0.2
31/06:00pm 22.2 23.8 17.8 76 2.7 ESE 6 11 3 6 1021.0 1021.0 0.2
31/05:30pm 22.4 24.0 17.8 75 2.9 SSE 6 11 3 6 1020.7 1020.7 0.2
31/05:00pm 22.5 24.7 18.3 77 2.6 SE 4 13 2 7 1020.8 1020.8 0.2
31/04:30pm 22.9 24.5 18.2 75 2.9 SE 7 13 4 7 1020.4 1020.4 0.2
31/04:00pm 24.0 24.2 17.7 68 3.9 E 13 22 7 12 1020.2 1020.2 0.2
31/03:30pm 25.1 26.3 17.3 62 4.9 E 7 11 4 6 1020.1 1020.1 0.2
31/03:00pm 24.8 26.1 17.5 64 4.5 ENE 7 13 4 7 1020.3 1020.3 0.2
31/02:30pm 25.2 26.4 17.4 62 4.9 ENE 7 13 4 7 1020.3 1020.3 0.2
31/02:00pm 24.8 25.2 17.3 63 4.6 E 11 17 6 9 1020.6 1020.6 0.0
31/01:30pm 24.6 26.0 17.8 66 4.3 ESE 7 13 4 7 1020.9 1020.9 0.0
31/01:00pm 24.6 25.9 18.5 69 3.8 ESE 9 15 5 8 1021.4 1021.4 0.0
31/12:30pm 25.0 26.8 19.6 72 3.5 E 9 15 5 8 1021.4 1021.4 0.0
31/12:00pm 24.8 26.8 19.2 71 3.6 ESE 7 15 4 8 1022.0 1022.0 0.0
31/11:30am 24.1 26.2 19.0 73 3.2 SSE 6 13 3 7 1022.3 1022.3 0.0
31/11:00am 23.6 26.0 18.9 75 3.0 SSE 4 7 2 4 1022.7 1022.7 0.0
31/10:30am 23.5 25.4 18.6 74 3.1 SSE 6 9 3 5 1022.7 1022.7 0.0
31/10:00am 23.6 25.5 18.5 73 3.2 SSE 6 9 3 5 1023.2 1023.2 0.0
31/09:30am 23.1 25.6 18.2 74 3.1 SW 2 6 1 3 1023.2 1023.2 0.0
31/09:00am 23.0 25.1 18.1 74 3.1 SW 4 7 2 4 1023.3 1023.3 0.0
31/08:30am 23.1 25.7 18.4 75 3.0 SSW 2 6 1 3 1023.0 1023.0 0.0
31/08:00am 22.0 24.3 17.8 77 2.6 SSW 2 6 1 3 1022.8 1022.8 0.0
31/07:30am 21.6 23.5 17.6 78 2.5 SW 4 9 2 5 1022.5 1022.5 0.0
31/07:00am 21.0 23.2 17.4 80 2.2 SW 2 7 1 4 1022.1 1022.1 0.0
31/06:30am 20.5 22.3 17.3 82 2.0 WSW 4 7 2 4 1022.0 1022.0 0.0
31/06:00am 19.9 22.2 16.7 82 1.9 CALM 0 2 0 1 1021.4 1021.4 0.0
31/05:30am 20.0 22.3 16.8 82 1.9 CALM 0 0 0 0 1021.4 1021.4 0.0
31/05:00am 20.5 22.6 17.1 81 2.1 SW 2 6 1 3 1021.5 1021.5 0.0
31/04:30am 20.6 23.1 17.2 81 2.1 CALM 0 0 0 0 1021.1 1021.1 0.0
31/04:00am 20.5 22.9 16.9 80 2.2 CALM 0 4 0 2 1021.1 1021.1 0.0
31/03:30am 20.4 22.8 17.0 81 2.1 CALM 0 4 0 2 1021.0 1021.0 0.0
31/03:00am 20.5 22.5 16.9 80 2.2 WSW 2 4 1 2 1021.3 1021.3 0.0
31/02:30am 20.9 23.0 17.3 80 2.2 SW 2 6 1 3 1021.4 1021.4 0.0
31/02:00am 20.9 23.0 17.3 80 2.2 WSW 2 4 1 2 1021.8 1021.8 0.0
31/01:30am 21.0 23.6 17.6 81 2.1 CALM 0 6 0 3 1022.1 1022.1 0.0
31/01:00am 20.6 23.0 17.0 80 2.2 CALM 0 0 0 0 1022.3 1022.3 0.0
31/12:30am 21.1 22.9 17.3 79 2.3 SSE 4 6 2 3 1022.5 1022.5 0.0
31/12:00am 20.8 22.9 17.2 80 2.2 SSE 2 4 1 2 1022.6 1022.6 0.0
 
Date/Time
EST
Temp
°C
App
Temp
°C
Dew
Point
Rel
Hum
%
Delta-T
°C
Wind Press
QNH
hPa
Press
MSL
hPa
Rain
since 9 am
mm
Dir
 
Spd
km/h
Gust
km/h
Spd
kts
Gust
kts
30/11:30pm 20.2 22.1 16.8 81 2.1 S 2 4 1 2 1022.8 1022.8 0.0
30/11:00pm 20.1 22.3 16.5 80 2.2 CALM 0 0 0 0 1022.8 1022.8 0.0
30/10:30pm 20.5 22.7 16.5 78 2.4 CALM 0 2 0 1 1022.9 1022.9 0.0
30/10:00pm 21.3 23.2 16.7 75 2.8 ESE 2 4 1 2 1023.2 1023.2 0.0
30/09:30pm 21.5 23.8 16.7 74 2.9 CALM 0 2 0 1 1023.2 1023.2 0.0
30/09:00pm 22.0 23.9 16.7 72 3.2 ESE 2 4 1 2 1023.4 1023.4 0.0
30/08:30pm 22.7 24.5 16.5 68 3.8 ESE 2 4 1 2 1023.2 1023.2 0.0
30/08:00pm 22.9 24.3 16.4 67 3.9 E 4 6 2 3 1023.0 1023.0 0.0
30/07:30pm 23.1 24.5 16.4 66 4.1 E 4 4 2 2 1022.9 1022.9 0.0
30/07:00pm 23.3 25.1 16.4 65 4.2 ESE 2 7 1 4 1022.7 1022.7 0.0
30/06:30pm 23.5 25.1 16.8 66 4.1 E 4 7 2 4 1022.1 1022.1 0.0
30/06:00pm 23.9 25.1 16.9 65 4.3 E 6 9 3 5 1021.8 1021.8 0.0
30/05:30pm 24.5 25.6 17.0 63 4.6 E 7 13 4 7 1021.4 1021.4 0.0
30/05:00pm 24.9 25.4 16.6 60 5.1 E 9 15 5 8 1021.3 1021.3 0.0
30/04:30pm 25.6 26.0 16.2 56 5.8 ENE 9 15 5 8 1021.2 1021.2 0.0
30/04:00pm 25.5 26.4 16.6 58 5.5 ENE 7 19 4 10 1020.8 1020.8 0.0
30/03:30pm 25.4 26.3 16.5 58 5.5 ENE 7 19 4 10 1020.6 1020.6 0.0
30/03:00pm 25.7 26.0 16.0 55 5.9 ENE 9 17 5 9 1020.7 1020.7 0.0
30/02:30pm 26.7 27.2 17.5 57 5.8 E 11 19 6 10 1020.8 1020.8 0.0
30/02:00pm 26.4 26.8 16.3 53 6.2 ENE 9 17 5 9 1021.1 1021.1 0.0
30/01:30pm 27.1 27.4 17.0 54 6.3 ENE 11 20 6 11 1020.9 1020.9 0.0

Other Formats:

Comma delimited format used in spreadsheet applications
http://www.bom.gov.au/fwo/IDQ60801/IDQ60801.94576.axf

JavaScript Object Notation format (JSON) in row-major order
http://www.bom.gov.au/fwo/IDQ60801/IDQ60801.94576.json